Time;durP1;ratioP1;P1;durP2;ratioP2;P2;SDS_P1;SDS_P2;PMS_P1;PMS_P2;Temp;Humidity;BMP_temperature;BMP_pressure;BME280_temperature;BME280_humidity;BME280_pressure;Samples;Min_cycle;Max_cycle;Signal;HPM_P1;HPM_P2
2022/01/18 00:01:19;;;;;;;84.63;5.65;;;3.90;99.90;;;;;;4945143;28;20046;-80
2022/01/18 00:03:45;;;;;;;109.55;6.28;;;3.90;99.90;;;;;;4944210;28;20130;-80
2022/01/18 00:06:11;;;;;;;109.57;7.90;;;3.80;99.90;;;;;;4945581;28;20035;-80
2022/01/18 00:08:37;;;;;;;148.75;8.13;;;3.80;99.90;;;;;;4946382;28;20491;-80
2022/01/18 00:11:03;;;;;;;123.30;6.85;;;3.80;99.90;;;;;;4945687;28;20050;-80
2022/01/18 00:16:12;;;;;;;98.13;6.18;;;3.80;99.90;;;;;;4944613;28;20460;-79
2022/01/18 00:18:38;;;;;;;88.55;6.20;;;3.80;99.90;;;;;;4939330;28;20051;-81
2022/01/18 00:26:32;;;;;;;110.32;6.70;;;3.80;99.90;;;;;;4944947;28;20126;-79
2022/01/18 00:29:05;;;;;;;112.70;7.28;;;3.90;99.90;;;;;;4940297;29;20051;-80
2022/01/18 00:36:54;;;;;;;135.10;6.38;;;3.90;99.90;;;;;;4945787;28;20566;-81
2022/01/18 00:39:20;;;;;;;146.15;6.78;;;3.80;99.90;;;;;;4945037;28;20047;-81
2022/01/18 00:41:45;;;;;;;87.97;5.93;;;3.70;99.90;;;;;;4950282;28;20436;-80
2022/01/18 00:44:11;;;;;;;64.78;5.22;;;3.70;99.90;;;;;;4948425;28;20623;-80
2022/01/18 00:46:38;;;;;;;44.00;5.32;;;3.70;99.90;;;;;;4950575;28;20047;-80
2022/01/18 00:49:04;;;;;;;77.30;5.97;;;3.70;99.90;;;;;;5114338;23;20062;-79
2022/01/18 00:51:37;;;;;;;65.38;6.47;;;3.80;99.90;;;;;;4947504;28;20047;-81
2022/01/18 00:54:05;;;;;;;54.35;4.82;;;3.80;99.90;;;;;;4945433;28;20042;-80
2022/01/18 00:56:32;;;;;;;84.80;6.00;;;3.80;99.90;;;;;;4950039;28;20163;-81
2022/01/18 00:58:59;;;;;;;72.85;5.72;;;3.90;99.90;;;;;;4948560;28;20495;-80
2022/01/18 01:01:28;;;;;;;75.90;6.85;;;4.00;99.90;;;;;;4944881;28;20390;-80
2022/01/18 01:03:58;;;;;;;77.72;6.00;;;4.00;99.90;;;;;;4948764;28;20074;-81
2022/01/18 01:06:24;;;;;;;86.63;6.28;;;4.00;99.90;;;;;;4947716;28;20053;-80
2022/01/18 01:08:51;;;;;;;53.72;6.68;;;4.00;99.90;;;;;;4949119;29;20043;-80
2022/01/18 01:11:17;;;;;;;73.22;7.30;;;4.00;99.90;;;;;;4944055;28;20522;-81
2022/01/18 01:13:46;;;;;;;59.40;5.82;;;4.00;99.90;;;;;;4948368;29;20062;-81
2022/01/18 01:18:59;;;;;;;73.18;5.68;;;4.00;99.90;;;;;;4968033;28;20078;-81
2022/01/18 01:43:28;;;;;;;85.22;4.85;;;3.60;99.90;;;;;;4893894;29;20044;-80
2022/01/18 01:45:55;;;;;;;94.47;5.25;;;3.60;99.90;;;;;;4890445;29;20501;-79
2022/01/18 01:48:23;;;;;;;68.15;4.10;;;3.60;99.90;;;;;;4890304;29;20405;-80
2022/01/18 01:50:54;;;;;;;92.95;4.75;;;3.50;99.90;;;;;;4892119;29;20048;-79
2022/01/18 01:53:22;;;;;;;61.10;3.20;;;3.50;99.90;;;;;;4889070;29;20040;-80
2022/01/18 01:55:52;;;;;;;68.93;3.33;;;3.40;99.90;;;;;;4895826;29;20072;-79
2022/01/18 01:58:21;;;;;;;74.97;3.95;;;3.40;99.90;;;;;;4898454;29;20424;-80
2022/01/18 02:01:02;;;;;;;54.83;3.38;;;3.40;99.90;;;;;;4894197;29;20056;-80
2022/01/18 02:03:28;;;;;;;72.05;4.22;;;3.30;99.90;;;;;;4893563;29;20076;-80
2022/01/18 02:05:53;;;;;;;56.35;4.07;;;3.40;99.90;;;;;;4892618;29;20072;-80
2022/01/18 02:08:20;;;;;;;40.47;3.53;;;3.40;99.90;;;;;;4889673;29;20588;-81
2022/01/18 02:10:46;;;;;;;59.67;3.70;;;3.40;99.90;;;;;;4895841;29;20055;-80
2022/01/18 02:13:12;;;;;;;39.50;4.03;;;3.40;99.90;;;;;;4892869;29;20049;-80
2022/01/18 02:15:44;;;;;;;83.75;4.70;;;3.40;99.90;;;;;;4895735;29;20462;-80
2022/01/18 02:23:38;;;;;;;33.80;4.57;;;3.40;99.90;;;;;;4893027;29;20048;-81
2022/01/18 02:26:04;;;;;;;43.17;4.38;;;3.40;99.90;;;;;;4893126;29;20040;-79
2022/01/18 02:28:30;;;;;;;60.00;5.00;;;3.40;99.90;;;;;;4891449;29;20453;-80
2022/01/18 02:30:56;;;;;;;75.28;5.07;;;3.40;99.90;;;;;;4898112;29;20056;-80
2022/01/18 02:33:25;;;;;;;43.17;3.90;;;3.50;99.90;;;;;;4897828;29;20057;-80
2022/01/18 02:35:51;;;;;;;52.88;4.72;;;3.50;99.90;;;;;;4917062;29;20413;-80
2022/01/18 02:38:17;;;;;;;31.33;3.97;;;3.50;99.90;;;;;;4914157;29;20044;-79
2022/01/18 02:40:42;;;;;;;32.92;4.25;;;3.50;99.90;;;;;;4919488;29;20082;-80
2022/01/18 02:45:57;;;;;;;31.77;5.15;;;3.60;99.90;;;;;;4911636;29;20512;-80
2022/01/18 02:48:23;;;;;;;38.08;4.75;;;3.60;99.90;;;;;;4915026;29;20062;-80
2022/01/18 02:50:58;;;;;;;21.10;3.78;;;3.60;99.90;;;;;;4920735;29;20486;-80
2022/01/18 02:53:23;;;;;;;19.70;4.00;;;3.60;99.90;;;;;;4908884;29;20051;-81
2022/01/18 02:55:57;;;;;;;34.90;4.90;;;3.70;99.90;;;;;;4911966;29;20063;-80
2022/01/18 02:58:29;;;;;;;;;;;3.70;99.90;;;;;;4919011;29;20051;-80
2022/01/18 03:03:32;;;;;;;38.40;5.93;;;3.80;99.90;;;;;;4911699;29;20172;-81
2022/01/18 03:06:00;;;;;;;31.15;4.32;;;3.80;99.90;;;;;;4898744;29;20043;-81
2022/01/18 03:08:26;;;;;;;31.95;6.03;;;3.80;99.90;;;;;;4915609;29;20047;-81
2022/01/18 03:10:52;;;;;;;31.80;5.85;;;3.80;99.90;;;;;;4913752;29;20816;-81
2022/01/18 03:13:19;;;;;;;47.83;5.68;;;3.90;99.90;;;;;;4921045;29;20039;-81
2022/01/18 03:15:45;;;;;;;30.42;5.28;;;3.90;99.90;;;;;;4912066;29;20046;-79
2022/01/18 03:18:11;;;;;;;44.13;7.05;;;4.00;99.90;;;;;;4908778;29;20048;-80
2022/01/18 03:20:38;;;;;;;41.72;6.20;;;4.00;99.90;;;;;;4914327;29;20047;-80
2022/01/18 03:23:11;;;;;;;39.92;5.45;;;4.10;99.90;;;;;;4913849;29;20055;-80
2022/01/18 03:25:52;;;;;;;;;;;4.10;99.90;;;;;;4915327;29;20044;-80
2022/01/18 03:28:22;;;;;;;66.15;5.95;;;4.10;99.90;;;;;;4913632;29;22220;-80
2022/01/18 03:30:53;;;;;;;20.35;4.22;;;4.10;99.90;;;;;;4906356;29;20051;-79
2022/01/18 03:33:20;;;;;;;19.10;3.78;;;4.10;99.90;;;;;;4912645;29;20055;-80
2022/01/18 03:35:47;;;;;;;26.42;4.50;;;4.20;99.90;;;;;;4907707;29;20535;-80
2022/01/18 03:38:14;;;;;;;22.35;4.15;;;4.10;99.90;;;;;;4912997;29;20036;-80
2022/01/18 03:40:40;;;;;;;25.60;4.65;;;4.20;99.90;;;;;;4920830;29;20177;-80
2022/01/18 03:43:08;;;;;;;27.42;4.47;;;4.20;99.90;;;;;;4914958;29;20067;-79
2022/01/18 03:45:42;;;;;;;32.30;5.18;;;4.30;99.90;;;;;;4912775;29;20071;-79
2022/01/18 03:48:14;;;;;;;25.15;5.18;;;4.30;99.90;;;;;;4917073;29;20071;-79
2022/01/18 03:50:40;;;;;;;37.95;4.97;;;4.40;99.90;;;;;;4913340;29;20062;-80
2022/01/18 03:53:06;;;;;;;39.70;5.75;;;4.40;99.90;;;;;;4915270;29;20043;-80
2022/01/18 03:55:31;;;;;;;27.88;5.43;;;4.40;99.90;;;;;;4911156;29;20047;-80
2022/01/18 03:57:57;;;;;;;42.15;6.25;;;4.40;99.90;;;;;;4917103;29;20036;-81
2022/01/18 04:00:27;;;;;;;32.33;5.18;;;4.50;99.90;;;;;;4912830;29;20048;-81
2022/01/18 04:02:54;;;;;;;33.85;5.13;;;4.50;99.90;;;;;;4912382;29;20036;-81
2022/01/18 04:05:19;;;;;;;32.10;5.15;;;4.40;99.90;;;;;;4912708;29;20053;-81
2022/01/18 04:07:46;;;;;;;29.23;4.93;;;4.50;99.90;;;;;;4917838;29;20048;-80
2022/01/18 04:10:11;;;;;;;44.75;7.00;;;4.50;99.90;;;;;;4913929;29;20071;-80
2022/01/18 04:12:37;;;;;;;35.92;6.35;;;4.50;99.90;;;;;;4908886;29;20119;-81
2022/01/18 04:15:05;;;;;;;27.73;5.15;;;4.50;99.90;;;;;;4911512;29;20048;-80
2022/01/18 04:30:41;;;;;;;36.00;5.78;;;4.70;99.90;;;;;;4912057;29;20055;-80
2022/01/18 04:33:06;;;;;;;35.47;5.80;;;4.70;99.90;;;;;;4910125;29;20086;-79
2022/01/18 04:35:32;;;;;;;53.70;7.75;;;4.70;99.90;;;;;;4909785;29;20496;-80
2022/01/18 04:37:58;;;;;;;39.78;5.63;;;4.70;99.90;;;;;;4912181;29;20048;-80
2022/01/18 04:40:29;;;;;;;36.22;5.25;;;4.70;99.90;;;;;;4908873;29;20408;-80
2022/01/18 04:50:51;;;;;;;43.95;6.47;;;4.90;99.90;;;;;;4915010;29;20143;-80
2022/01/18 04:53:17;;;;;;;35.15;5.82;;;4.90;99.90;;;;;;4912522;29;20052;-81
2022/01/18 04:55:43;;;;;;;42.35;5.60;;;4.90;99.90;;;;;;4910808;29;20044;-80
2022/01/18 04:58:09;;;;;;;41.15;5.43;;;4.90;99.90;;;;;;4911717;29;20052;-79
2022/01/18 05:00:35;;;;;;;33.72;5.57;;;5.00;99.90;;;;;;4907005;29;20052;-80
2022/01/18 05:03:01;;;;;;;38.85;6.38;;;5.00;99.90;;;;;;4909388;29;20048;-80
2022/01/18 05:05:29;;;;;;;48.50;6.40;;;5.00;99.90;;;;;;4910900;29;20087;-80
2022/01/18 05:08:04;;;;;;;35.92;5.80;;;5.00;99.90;;;;;;4910280;29;20103;-80
2022/01/18 05:10:31;;;;;;;47.08;6.28;;;5.10;99.90;;;;;;4903565;29;20120;-79
2022/01/18 05:12:59;;;;;;;37.63;5.90;;;5.00;99.90;;;;;;4913106;29;20156;-79
2022/01/18 05:23:29;;;;;;;38.67;5.97;;;5.10;99.90;;;;;;4915386;29;20044;-80
2022/01/18 05:25:55;;;;;;;39.10;6.72;;;5.10;99.90;;;;;;4908251;29;20403;-80
2022/01/18 05:28:20;;;;;;;39.17;5.90;;;5.10;99.90;;;;;;4913890;29;20060;-79
2022/01/18 05:30:46;;;;;;;43.63;5.63;;;5.10;99.90;;;;;;4910595;29;20040;-80
2022/01/18 05:33:12;;;;;;;37.92;5.13;;;5.10;99.90;;;;;;4914288;29;20059;-80
2022/01/18 05:35:38;;;;;;;38.22;5.47;;;5.10;99.90;;;;;;4912222;29;20056;-80
2022/01/18 05:38:05;;;;;;;40.58;6.45;;;5.10;99.90;;;;;;4910205;29;20042;-80
2022/01/18 05:40:30;;;;;;;41.20;5.32;;;5.10;99.90;;;;;;4911067;29;20044;-81
2022/01/18 05:42:56;;;;;;;32.92;5.47;;;5.20;99.90;;;;;;4929179;29;20500;-80
2022/01/18 05:45:25;;;;;;;44.42;5.50;;;5.20;99.90;;;;;;4908556;29;20067;-79
2022/01/18 05:47:50;;;;;;;47.58;6.20;;;5.20;99.90;;;;;;4909472;29;20097;-80
2022/01/18 05:50:16;;;;;;;31.92;5.90;;;5.20;99.90;;;;;;4909844;29;20151;-79
2022/01/18 05:52:42;;;;;;;33.08;6.18;;;5.30;99.90;;;;;;4905147;29;20483;-80
2022/01/18 05:55:09;;;;;;;41.35;5.30;;;5.30;99.90;;;;;;4907932;29;20040;-79
2022/01/18 05:57:35;;;;;;;43.53;5.90;;;5.30;99.90;;;;;;4916624;29;20052;-80
2022/01/18 06:00:04;;;;;;;48.58;7.13;;;5.30;99.90;;;;;;4906394;29;20099;-75
2022/01/18 06:02:48;;;;;;;41.10;6.30;;;5.40;99.90;;;;;;4912434;29;20044;-80
2022/01/18 06:07:58;;;;;;;42.67;6.47;;;5.40;99.90;;;;;;4919724;29;20083;-80
2022/01/18 06:10:24;;;;;;;36.30;6.22;;;5.40;99.90;;;;;;4911942;29;20280;-79
2022/01/18 06:12:50;;;;;;;44.22;6.18;;;5.40;99.90;;;;;;4919095;29;20044;-79
2022/01/18 06:15:15;;;;;;;29.50;6.03;;;5.40;99.90;;;;;;4907543;29;20048;-78
2022/01/18 06:17:41;;;;;;;35.88;6.53;;;5.40;99.90;;;;;;4913046;29;20103;-80
2022/01/18 06:20:08;;;;;;;45.08;6.45;;;5.40;99.90;;;;;;4912588;29;20499;-80
2022/01/18 06:22:34;;;;;;;41.40;6.72;;;5.40;99.90;;;;;;4914460;29;20115;-79
2022/01/18 06:25:00;;;;;;;42.22;5.72;;;5.40;99.90;;;;;;4927511;29;20477;-79
2022/01/18 06:27:26;;;;;;;38.33;5.85;;;5.50;99.90;;;;;;4914022;29;20094;-79
2022/01/18 06:29:52;;;;;;;36.97;6.95;;;5.50;99.90;;;;;;4910341;29;20075;-78
2022/01/18 06:32:18;;;;;;;30.13;5.45;;;5.40;99.90;;;;;;4911429;29;20651;-80
2022/01/18 06:34:45;;;;;;;33.40;6.30;;;5.50;99.90;;;;;;4906649;29;20039;-79
2022/01/18 06:37:11;;;;;;;45.45;6.57;;;5.40;99.90;;;;;;4909976;29;20074;-79
2022/01/18 06:39:37;;;;;;;31.63;5.20;;;5.40;99.90;;;;;;4913491;29;20059;-81
2022/01/18 06:42:03;;;;;;;33.95;5.60;;;5.40;99.90;;;;;;5049236;23;20050;-78
2022/01/18 06:44:29;;;;;;;41.03;7.05;;;5.40;99.90;;;;;;4948091;28;20078;-79
2022/01/18 06:46:55;;;;;;;30.40;5.55;;;5.40;99.90;;;;;;4943187;28;20082;-80
2022/01/18 06:49:21;;;;;;;35.22;6.72;;;5.40;99.90;;;;;;4947120;28;20628;-77
2022/01/18 06:51:46;;;;;;;33.55;6.90;;;5.40;99.90;;;;;;4946846;28;20423;-77
2022/01/18 06:54:16;;;;;;;40.40;7.30;;;5.40;99.90;;;;;;4944134;28;20055;-78
2022/01/18 06:56:45;;;;;;;62.10;9.52;;;5.40;99.90;;;;;;4939047;28;20162;-78
2022/01/18 06:59:11;;;;;;;56.47;10.23;;;5.40;99.90;;;;;;4941526;28;20182;-79
2022/01/18 07:01:37;;;;;;;104.90;12.50;;;5.40;99.90;;;;;;4941906;28;20044;-78
2022/01/18 07:04:03;;;;;;;122.30;12.82;;;5.40;99.90;;;;;;4944538;28;20574;-77
2022/01/18 07:06:29;;;;;;;123.57;12.73;;;5.40;99.90;;;;;;4936964;28;20103;-80
2022/01/18 07:08:57;;;;;;;157.00;14.45;;;5.40;99.90;;;;;;4939081;28;20070;-79
2022/01/18 07:11:23;;;;;;;141.07;13.55;;;5.40;99.90;;;;;;5098455;23;20162;-79
2022/01/18 07:13:48;;;;;;;101.55;11.43;;;5.40;99.90;;;;;;4963528;28;20532;-79
2022/01/18 07:16:14;;;;;;;124.45;12.15;;;5.40;99.90;;;;;;4964423;28;21034;-78
2022/01/18 07:18:40;;;;;;;107.15;10.00;;;5.40;99.90;;;;;;4964369;28;20105;-80
2022/01/18 07:21:06;;;;;;;103.25;9.75;;;5.40;99.90;;;;;;4963783;28;20452;-79
2022/01/18 07:23:33;;;;;;;89.32;9.70;;;5.40;99.90;;;;;;4965822;28;20066;-82
2022/01/18 07:25:59;;;;;;;111.35;10.27;;;5.40;99.90;;;;;;5099715;23;20055;-81
2022/01/18 07:28:25;;;;;;;113.28;12.05;;;5.40;99.90;;;;;;4919861;29;20074;-77
2022/01/18 07:30:50;;;;;;;154.20;17.27;;;5.40;99.90;;;;;;4908651;29;20416;-80
2022/01/18 07:33:17;;;;;;;128.82;12.82;;;5.40;99.90;;;;;;4903500;29;20511;-81
2022/01/18 07:35:43;;;;;;;98.03;11.30;;;5.50;99.90;;;;;;4912084;28;20050;-81
2022/01/18 07:38:14;;;;;;;121.32;11.55;;;5.50;99.90;;;;;;4908986;29;20064;-81
2022/01/18 07:40:41;;;;;;;116.90;15.13;;;5.40;99.90;;;;;;4918427;29;20647;-81
2022/01/18 07:43:08;;;;;;;106.53;15.63;;;5.50;99.90;;;;;;4914442;28;20127;-79
2022/01/18 07:45:34;;;;;;;131.70;14.45;;;5.40;99.90;;;;;;5108721;23;20455;-80
2022/01/18 07:47:59;;;;;;;117.05;15.85;;;5.40;99.90;;;;;;4928373;29;20071;-81
2022/01/18 07:50:26;;;;;;;140.60;15.52;;;5.40;99.90;;;;;;4926202;28;20054;-80
2022/01/18 07:52:52;;;;;;;113.45;14.90;;;5.40;99.90;;;;;;4924828;28;20102;-82
2022/01/18 07:58:07;;;;;;;91.75;15.30;;;5.50;99.90;;;;;;4920178;28;20127;-81
2022/01/18 08:00:32;;;;;;;95.28;13.65;;;5.50;99.90;;;;;;4919092;29;20118;-81
2022/01/18 08:02:58;;;;;;;119.50;16.65;;;5.40;99.90;;;;;;4922630;29;20044;-81
2022/01/18 08:05:24;;;;;;;98.55;14.95;;;5.40;99.90;;;;;;4925668;28;20043;-80
2022/01/18 08:07:50;;;;;;;108.53;16.77;;;5.40;99.90;;;;;;4921774;29;20047;-80
2022/01/18 08:10:18;;;;;;;84.85;14.13;;;5.40;99.90;;;;;;4925351;28;20047;-79
2022/01/18 08:12:46;;;;;;;122.43;15.25;;;5.40;99.90;;;;;;4923967;29;20040;-78
2022/01/18 08:15:20;;;;;;;74.43;11.48;;;5.40;99.90;;;;;;4921669;29;20062;-78
2022/01/18 08:17:48;;;;;;;77.07;13.10;;;5.40;99.90;;;;;;4926423;29;20044;-79
2022/01/18 08:20:15;;;;;;;110.82;13.90;;;5.40;99.90;;;;;;4923738;29;20467;-79
2022/01/18 08:22:43;;;;;;;86.72;12.93;;;5.40;99.90;;;;;;4927024;29;20058;-79
2022/01/18 08:25:11;;;;;;;99.05;13.40;;;5.40;99.90;;;;;;4926278;28;20040;-79
2022/01/18 08:27:37;;;;;;;99.50;16.85;;;5.40;99.90;;;;;;4924908;28;20043;-78
2022/01/18 08:30:06;;;;;;;91.60;19.63;;;5.40;99.90;;;;;;4926077;28;20055;-78
2022/01/18 08:32:32;;;;;;;81.63;14.30;;;5.40;99.90;;;;;;4921536;29;20507;-79
2022/01/18 08:34:58;;;;;;;85.75;12.68;;;5.40;99.90;;;;;;4926439;29;20126;-79
2022/01/18 08:37:24;;;;;;;48.55;9.05;;;5.40;99.90;;;;;;4926454;28;20055;-79
2022/01/18 08:39:50;;;;;;;40.10;8.85;;;5.40;99.90;;;;;;4927209;28;20040;-79
2022/01/18 08:42:15;;;;;;;36.85;7.15;;;5.40;99.90;;;;;;4922725;29;20123;-78
2022/01/18 08:44:43;;;;;;;49.78;10.43;;;5.50;99.90;;;;;;4922264;29;20576;-78
2022/01/18 08:47:13;;;;;;;50.55;9.60;;;5.50;99.90;;;;;;4924292;29;20051;-78
2022/01/18 08:49:39;;;;;;;44.10;7.53;;;5.50;99.90;;;;;;4914198;29;20043;-77
2022/01/18 08:52:05;;;;;;;43.15;7.03;;;5.50;99.90;;;;;;4925017;28;20044;-77
2022/01/18 08:54:31;;;;;;;41.92;6.63;;;5.50;99.90;;;;;;4928920;29;20051;-78
2022/01/18 08:56:57;;;;;;;29.30;6.45;;;5.50;99.90;;;;;;4936667;28;20050;-78
2022/01/18 08:59:23;;;;;;;32.78;5.80;;;5.60;99.90;;;;;;4948222;28;20154;-80
2022/01/18 09:01:50;;;;;;;36.60;5.28;;;5.60;99.90;;;;;;4942559;28;20059;-79
2022/01/18 09:04:16;;;;;;;50.72;7.45;;;5.60;99.90;;;;;;4943305;28;21122;-78
2022/01/18 09:06:43;;;;;;;53.53;9.43;;;5.60;99.90;;;;;;4947197;28;20048;-78
2022/01/18 09:09:11;;;;;;;27.50;5.72;;;5.60;99.90;;;;;;4945685;28;20035;-78
2022/01/18 09:11:37;;;;;;;39.00;7.57;;;5.60;99.90;;;;;;4947064;28;20043;-78
2022/01/18 09:14:04;;;;;;;49.80;9.95;;;5.60;99.90;;;;;;4946837;28;20401;-77
2022/01/18 09:16:29;;;;;;;52.85;9.85;;;5.60;99.90;;;;;;4950441;28;20050;-78
2022/01/18 09:18:55;;;;;;;60.92;13.57;;;5.60;99.90;;;;;;4950707;28;20047;-79
2022/01/18 09:21:20;;;;;;;65.47;11.00;;;5.60;99.90;;;;;;4947812;28;22187;-83
2022/01/18 09:23:46;;;;;;;44.00;10.38;;;5.70;99.90;;;;;;5150257;23;20043;-79
2022/01/18 09:26:13;;;;;;;39.45;11.55;;;5.70;99.90;;;;;;4952731;28;20047;-79
2022/01/18 09:28:39;;;;;;;53.45;10.65;;;5.70;99.90;;;;;;4948536;28;20158;-78
2022/01/18 09:31:05;;;;;;;53.15;10.13;;;5.70;99.90;;;;;;4948979;28;20046;-77
2022/01/18 09:33:30;;;;;;;48.10;8.63;;;5.80;99.90;;;;;;4952733;28;20432;-79
2022/01/18 09:35:56;;;;;;;46.30;9.88;;;5.80;99.90;;;;;;4950551;28;20059;-79
2022/01/18 09:38:24;;;;;;;40.83;9.38;;;5.80;99.90;;;;;;4950459;28;20099;-77
2022/01/18 09:40:50;;;;;;;39.80;7.50;;;5.80;99.90;;;;;;4948520;28;20126;-78
2022/01/18 09:43:16;;;;;;;41.00;5.68;;;5.80;99.90;;;;;;4947234;28;20051;-79
2022/01/18 09:45:45;;;;;;;35.42;7.10;;;5.80;99.90;;;;;;4947042;28;20487;-78
2022/01/18 09:48:12;;;;;;;30.98;6.20;;;5.80;99.90;;;;;;4946940;28;20047;-77
2022/01/18 09:50:40;;;;;;;32.30;6.90;;;5.80;99.90;;;;;;4952410;28;20054;-79
2022/01/18 09:53:08;;;;;;;29.45;5.95;;;5.80;99.90;;;;;;4945329;28;20055;-78
2022/01/18 09:55:35;;;;;;;27.60;6.00;;;5.80;99.90;;;;;;4949793;28;20051;-78
2022/01/18 09:58:04;;;;;;;37.55;7.50;;;5.80;99.90;;;;;;4947725;28;20054;-78
2022/01/18 10:00:31;;;;;;;37.92;7.50;;;5.80;99.90;;;;;;4946840;28;20110;-78
2022/01/18 10:02:58;;;;;;;27.50;5.93;;;5.80;99.90;;;;;;4950476;28;20138;-78
2022/01/18 10:05:25;;;;;;;30.45;5.57;;;5.80;99.90;;;;;;4949388;28;20043;-78
2022/01/18 10:08:13;;;;;;;39.35;7.03;;;5.80;99.90;;;;;;4945931;28;20051;-78
2022/01/18 10:10:47;;;;;;;45.72;7.65;;;5.80;99.90;;;;;;4946805;28;20445;-78
2022/01/18 10:13:28;;;;;;;48.20;8.25;;;5.80;99.90;;;;;;4947655;28;20055;-77
2022/01/18 10:16:17;;;;;;;49.83;8.43;;;5.80;99.90;;;;;;4944999;28;20763;-78
2022/01/18 10:18:56;;;;;;;51.53;9.40;;;5.80;99.90;;;;;;4945935;28;20045;-78
2022/01/18 10:21:34;;;;;;;52.60;9.18;;;5.80;99.90;;;;;;4949462;28;20057;-77
2022/01/18 10:24:20;;;;;;;52.42;9.18;;;5.80;99.90;;;;;;4950034;28;20047;-78
2022/01/18 10:26:48;;;;;;;63.28;9.48;;;5.80;99.90;;;;;;4948606;28;20086;-77
2022/01/18 10:29:14;;;;;;;51.75;10.13;;;5.80;99.90;;;;;;4943319;28;20046;-78
2022/01/18 10:31:57;;;;;;;53.90;9.25;;;5.80;99.90;;;;;;4951714;28;20422;-77
2022/01/18 10:37:08;;;;;;;79.15;10.05;;;5.80;99.90;;;;;;4948152;28;20143;-78
2022/01/18 10:39:40;;;;;;;69.72;10.70;;;5.80;99.90;;;;;;4946877;28;20066;-77
2022/01/18 10:42:22;;;;;;;82.25;11.68;;;5.80;99.90;;;;;;4953274;28;20051;-77
2022/01/18 10:45:00;;;;;;;42.63;7.30;;;5.80;99.90;;;;;;4953725;28;20047;-78
2022/01/18 10:47:27;;;;;;;70.05;9.10;;;5.80;99.90;;;;;;4954161;28;20043;-79
2022/01/18 10:50:05;;;;;;;42.33;7.28;;;5.80;99.90;;;;;;4950679;28;20116;-80
2022/01/18 10:52:30;;;;;;;41.95;6.45;;;5.80;99.90;;;;;;4950569;28;20051;-77
2022/01/18 10:54:58;;;;;;;36.67;6.10;;;5.80;99.90;;;;;;4957903;28;20053;-78
2022/01/18 10:57:36;;;;;;;37.80;5.13;;;5.70;99.90;;;;;;4954599;28;20110;-78
2022/01/18 11:00:08;;;;;;;29.48;5.63;;;5.70;99.90;;;;;;4957465;28;20175;-76
2022/01/18 11:02:42;;;;;;;38.28;5.22;;;5.70;99.90;;;;;;4957379;28;20047;-78
2022/01/18 11:05:13;;;;;;;24.33;6.32;;;5.70;99.90;;;;;;4950805;28;20079;-78
2022/01/18 11:07:39;;;;;;;14.90;4.78;;;5.70;99.90;;;;;;4945571;28;20045;-79
2022/01/18 11:10:06;;;;;;;19.20;4.70;;;5.70;99.90;;;;;;4947439;28;20118;-76
2022/01/18 11:12:43;;;;;;;18.45;5.55;;;5.70;99.90;;;;;;4953751;28;20059;-78
2022/01/18 11:15:15;;;;;;;18.73;6.05;;;5.70;99.90;;;;;;4953995;28;20051;-77
2022/01/18 11:17:49;;;;;;;22.67;5.10;;;5.70;99.90;;;;;;4960436;28;20046;-77
2022/01/18 11:20:14;;;;;;;;;;;5.70;99.90;;;;;;4945457;28;20297;-77
2022/01/18 11:22:40;;;;;;;39.90;5.68;;;5.70;99.90;;;;;;4953078;28;19930;-77
2022/01/18 11:25:07;;;;;;;18.48;4.90;;;5.70;99.90;;;;;;4952844;28;20059;-76
2022/01/18 11:27:35;;;;;;;25.55;5.38;;;5.70;99.90;;;;;;4955733;28;20051;-76
2022/01/18 11:30:06;;;;;;;23.83;6.10;;;5.70;99.90;;;;;;4946856;28;20111;-74
2022/01/18 11:32:32;;;;;;;25.33;5.82;;;5.60;99.90;;;;;;4950166;28;20050;-77
2022/01/18 11:35:15;;;;;;;21.95;6.15;;;5.60;99.90;;;;;;4955010;28;20047;-77
2022/01/18 11:38:04;;;;;;;18.33;6.15;;;5.60;99.90;;;;;;4950633;28;20050;-77
2022/01/18 11:40:51;;;;;;;44.05;7.45;;;5.70;99.90;;;;;;4948416;28;20535;-78
2022/01/18 11:43:37;;;;;;;25.65;7.32;;;5.60;99.90;;;;;;4949439;28;20046;-76
2022/01/18 11:46:30;;;;;;;22.88;7.13;;;5.60;99.90;;;;;;4958845;28;20117;-74
2022/01/18 11:49:25;;;;;;;34.78;7.22;;;5.60;99.90;;;;;;4951104;28;20043;-75
2022/01/18 11:52:10;;;;;;;26.90;7.13;;;5.60;99.90;;;;;;4933513;28;20039;-74
2022/01/18 11:57:24;;;;;;;30.23;8.25;;;5.60;99.90;;;;;;4948158;28;20137;-74
2022/01/18 12:00:04;;;;;;;22.83;8.00;;;5.60;99.90;;;;;;4950648;28;20051;-74
2022/01/18 12:02:40;;;;;;;31.27;8.27;;;5.70;99.90;;;;;;4935163;28;20051;-74
2022/01/18 12:05:13;;;;;;;24.83;9.13;;;5.70;99.90;;;;;;4951081;28;20047;-73
2022/01/18 12:07:44;;;;;;;21.10;8.85;;;5.70;99.90;;;;;;4952980;28;20043;-74
2022/01/18 12:10:30;;;;;;;30.77;8.55;;;5.70;99.90;;;;;;4946751;28;20058;-74
2022/01/18 12:12:58;;;;;;;26.25;6.95;;;5.80;99.90;;;;;;4945889;28;20058;-75
2022/01/18 12:15:26;;;;;;;25.27;7.63;;;5.80;99.90;;;;;;4954438;28;20047;-74
2022/01/18 12:18:01;;;;;;;27.17;7.03;;;5.80;99.90;;;;;;4944438;28;20039;-74
2022/01/18 12:20:46;;;;;;;26.63;7.65;;;5.80;99.90;;;;;;4948150;28;20047;-74
2022/01/18 12:23:32;;;;;;;22.58;5.78;;;5.80;99.90;;;;;;4947734;28;20059;-72
2022/01/18 12:26:29;;;;;;;29.92;7.65;;;5.80;99.90;;;;;;4947303;28;20051;-72
2022/01/18 12:29:46;;;;;;;33.53;7.80;;;5.80;99.90;;;;;;4953289;28;20043;-74
2022/01/18 12:34:49;;;;;;;25.60;6.70;;;5.80;99.90;;;;;;4953207;28;20043;-73
2022/01/18 12:37:17;;;;;;;27.67;8.10;;;5.80;99.90;;;;;;4952307;28;20050;-73
2022/01/18 12:40:05;;;;;;;30.75;6.63;;;5.70;99.90;;;;;;4955790;28;20083;-74
2022/01/18 12:45:12;;;;;;;19.95;6.80;;;5.60;99.90;;;;;;4956013;28;20057;-73
2022/01/18 12:47:49;;;;;;;30.90;7.47;;;5.60;99.90;;;;;;4953547;28;20051;-74
2022/01/18 12:50:23;;;;;;;27.08;5.97;;;5.60;99.90;;;;;;4951592;28;20499;-72
2022/01/18 12:52:48;;;;;;;35.88;7.00;;;5.60;99.90;;;;;;4950986;28;20063;-73
2022/01/18 12:55:31;;;;;;;30.17;7.97;;;5.60;99.90;;;;;;4953769;28;20105;-73
2022/01/18 12:58:04;;;;;;;38.17;8.75;;;5.50;99.90;;;;;;4951646;28;20047;-74
2022/01/18 13:00:55;;;;;;;37.35;9.25;;;5.50;99.90;;;;;;4952579;28;20059;-73
2022/01/18 13:03:33;;;;;;;44.55;11.30;;;5.50;99.90;;;;;;4942009;28;20055;-73
2022/01/18 13:06:00;;;;;;;56.17;12.27;;;5.50;99.90;;;;;;4953677;28;20143;-78
2022/01/18 13:08:44;;;;;;;50.03;11.00;;;5.50;99.90;;;;;;4954605;28;20057;-76
2022/01/18 13:11:11;;;;;;;46.35;12.38;;;5.50;99.90;;;;;;4952936;28;20042;-75
2022/01/18 13:13:37;;;;;;;39.97;12.52;;;5.50;99.90;;;;;;4955853;28;20043;-77
2022/01/18 13:27:02;;;;;;;56.72;13.00;;;5.60;99.90;;;;;;4954571;28;20083;-76
2022/01/18 13:29:29;;;;;;;53.13;14.95;;;5.60;99.90;;;;;;4952669;28;20039;-76
2022/01/18 13:32:19;;;;;;;47.58;12.48;;;5.50;99.90;;;;;;4954565;28;20055;-77
2022/01/18 13:34:49;;;;;;;44.35;13.57;;;5.50;99.90;;;;;;4946753;28;20035;-77
2022/01/18 13:37:22;;;;;;;46.50;13.70;;;5.50;99.90;;;;;;4953764;28;20047;-76
2022/01/18 13:39:55;;;;;;;41.03;14.25;;;5.50;99.90;;;;;;4940946;28;20102;-76
2022/01/18 13:42:33;;;;;;;36.78;12.25;;;5.50;99.90;;;;;;4947037;28;20053;-77
2022/01/18 13:45:19;;;;;;;35.08;13.95;;;5.50;99.90;;;;;;4953618;28;20550;-76
2022/01/18 13:47:53;;;;;;;45.85;14.50;;;5.40;99.90;;;;;;4957845;28;20050;-78
2022/01/18 13:50:30;;;;;;;;;;;5.40;99.90;;;;;;4953009;28;20296;-76
2022/01/18 13:53:01;;;;;;;46.40;16.13;;;5.40;99.90;;;;;;4950681;28;20433;-77
2022/01/18 13:55:28;;;;;;;46.25;15.43;;;5.40;99.90;;;;;;4951665;28;20162;-77
2022/01/18 13:57:56;;;;;;;43.75;14.77;;;5.40;99.90;;;;;;4953948;28;20122;-77
2022/01/18 14:00:23;;;;;;;51.08;15.82;;;5.40;99.90;;;;;;4952356;28;20407;-77
2022/01/18 14:02:49;;;;;;;55.92;12.52;;;5.40;99.90;;;;;;4950464;28;20046;-77
2022/01/18 14:05:17;;;;;;;64.45;13.65;;;5.30;99.90;;;;;;4950327;28;20124;-76
2022/01/18 14:07:43;;;;;;;36.45;11.75;;;5.20;99.90;;;;;;4948057;28;20046;-77
2022/01/18 14:10:09;;;;;;;36.83;12.40;;;5.20;99.90;;;;;;4948431;28;20114;-78
2022/01/18 14:12:34;;;;;;;33.85;11.60;;;5.20;99.90;;;;;;4952292;28;20507;-76
2022/01/18 14:15:00;;;;;;;31.13;11.50;;;5.20;99.90;;;;;;4954411;28;20075;-75
2022/01/18 14:17:26;;;;;;;38.67;13.18;;;5.10;99.90;;;;;;4949355;28;21517;-75
2022/01/18 14:20:13;;;;;;;33.65;12.32;;;5.10;99.90;;;;;;4946916;28;20043;-76
2022/01/18 14:22:39;;;;;;;33.60;10.70;;;5.10;99.90;;;;;;4945027;28;20044;-76
2022/01/18 14:25:07;;;;;;;32.33;12.05;;;5.00;99.90;;;;;;4952204;28;20054;-76
2022/01/18 14:27:38;;;;;;;29.40;11.50;;;5.00;99.90;;;;;;4948065;28;20049;-72
2022/01/18 14:30:10;;;;;;;27.13;10.65;;;5.00;99.90;;;;;;4949201;28;20047;-74
2022/01/18 14:32:42;;;;;;;27.02;9.73;;;5.00;99.90;;;;;;4954502;28;20407;-76
2022/01/18 14:35:19;;;;;;;26.90;10.60;;;5.00;99.90;;;;;;4949687;28;20043;-76
2022/01/18 14:37:51;;;;;;;20.52;7.63;;;4.90;99.90;;;;;;4938951;28;20051;-76
2022/01/18 14:40:30;;;;;;;19.88;8.02;;;4.90;99.90;;;;;;4946973;28;20047;-73
2022/01/18 14:43:09;;;;;;;26.77;9.63;;;4.80;99.90;;;;;;4945672;28;20114;-74